This is the latest recevied weather packets stored in our database for station/object DB7GV-8. If no packets are shown the sender has not sent any weather packets the latest 10 day(s).
| Time | Temp. | Humidity | Pressure | Rain* | Wind** | Luminosity | Snow |
|---|---|---|---|---|---|---|---|
| 1777441493 | 12.78° C | 52% | 1018.7 hPa | - | - | - | - |
| 1777440588 | 12.78° C | 52% | 1018.6 hPa | - | - | - | - |
| 1777439682 | 12.22° C | 52% | 1018.6 hPa | - | - | - | - |
| 1777438777 | 12.22° C | 52% | 1018.3 hPa | - | - | - | - |
| 1777437871 | 12.22° C | 52% | 1018.4 hPa | - | - | - | - |
| 1777436966 | 12.22° C | 53% | 1018.2 hPa | - | - | - | - |
| 1777436061 | 12.22° C | 52% | 1018.1 hPa | - | - | - | - |
| 1777435155 | 12.78° C | 51% | 1018 hPa | - | - | - | - |
| 1777434250 | 12.78° C | 51% | 1017.8 hPa | - | - | - | - |
| 1777433345 | 12.78° C | 52% | 1017.9 hPa | - | - | - | - |
| 1777432439 | 12.78° C | 52% | 1017.9 hPa | - | - | - | - |
| 1777431533 | 13.33° C | 49% | 1017.6 hPa | - | - | - | - |
| 1777429723 | 13.33° C | 47% | 1017.4 hPa | - | - | - | - |
| 1777428817 | 13.89° C | 47% | 1017.2 hPa | - | - | - | - |
| 1777427911 | 13.89° C | 47% | 1017.2 hPa | - | - | - | - |
| 1777427006 | 13.89° C | 48% | 1017 hPa | - | - | - | - |
| 1777426101 | 13.33° C | 50% | 1017.1 hPa | - | - | - | - |
| 1777425196 | 13.89° C | 51% | 1017.1 hPa | - | - | - | - |
| 1777424290 | 13.33° C | 59% | 1017.1 hPa | - | - | - | - |
| 1777423385 | 13.33° C | 64% | 1017.1 hPa | - | - | - | - |
| 1777422480 | 13.33° C | 66% | 1017 hPa | - | - | - | - |
| 1777421574 | 13.33° C | 67% | 1017.1 hPa | - | - | - | - |
| 1777420668 | 13.33° C | 69% | 1017.2 hPa | - | - | - | - |
| 1777419763 | 13.33° C | 71% | 1017.3 hPa | - | - | - | - |
| 1777418858 | 13.33° C | 72% | 1017.4 hPa | - | - | - | - |
* Rain since midnight (hover to see other rain measurements)
** Current wind speed in m/s (hover to see current wind gust speed)